sensor_id;sensor_type;location;lat;lon;timestamp;temperature;humidity
70246;SHT30;57637;49.272;8.590;2023-03-14T00:02:08;10.85;85.94
70246;SHT30;57637;49.272;8.590;2023-03-14T00:04:34;10.90;85.73
70246;SHT30;57637;49.272;8.590;2023-03-14T00:06:59;10.95;85.40
70246;SHT30;57637;49.272;8.590;2023-03-14T00:09:25;11.03;84.95
70246;SHT30;57637;49.272;8.590;2023-03-14T00:11:52;11.08;84.88
70246;SHT30;57637;49.272;8.590;2023-03-14T00:14:18;11.08;84.99
70246;SHT30;57637;49.272;8.590;2023-03-14T00:16:46;11.08;85.14
70246;SHT30;57637;49.272;8.590;2023-03-14T00:19:12;11.10;84.99
70246;SHT30;57637;49.272;8.590;2023-03-14T00:21:37;11.08;84.95
70246;SHT30;57637;49.272;8.590;2023-03-14T00:24:02;11.05;84.96
70246;SHT30;57637;49.272;8.590;2023-03-14T00:26:28;11.10;84.89
70246;SHT30;57637;49.272;8.590;2023-03-14T00:28:54;11.10;84.89
70246;SHT30;57637;49.272;8.590;2023-03-14T00:31:19;11.14;84.86
70246;SHT30;57637;49.272;8.590;2023-03-14T00:33:44;11.14;84.66
70246;SHT30;57637;49.272;8.590;2023-03-14T00:36:11;11.18;84.54
70246;SHT30;57637;49.272;8.590;2023-03-14T00:38:38;11.22;84.50
70246;SHT30;57637;49.272;8.590;2023-03-14T00:41:05;11.25;84.35
70246;SHT30;57637;49.272;8.590;2023-03-14T00:43:32;11.25;84.50
70246;SHT30;57637;49.272;8.590;2023-03-14T00:45:57;11.21;84.50
70246;SHT30;57637;49.272;8.590;2023-03-14T00:48:23;11.21;84.60
70246;SHT30;57637;49.272;8.590;2023-03-14T00:50:48;11.15;84.79
70246;SHT30;57637;49.272;8.590;2023-03-14T00:53:14;11.14;84.90
70246;SHT30;57637;49.272;8.590;2023-03-14T00:55:40;11.10;85.02
70246;SHT30;57637;49.272;8.590;2023-03-14T00:58:07;11.08;85.16
70246;SHT30;57637;49.272;8.590;2023-03-14T01:00:33;11.08;85.35
70246;SHT30;57637;49.272;8.590;2023-03-14T01:02:59;11.08;85.45
70246;SHT30;57637;49.272;8.590;2023-03-14T01:05:24;11.12;85.49
70246;SHT30;57637;49.272;8.590;2023-03-14T01:07:50;11.16;85.39
70246;SHT30;57637;49.272;8.590;2023-03-14T01:10:15;11.21;85.40
70246;SHT30;57637;49.272;8.590;2023-03-14T01:12:41;11.16;85.32
70246;SHT30;57637;49.272;8.590;2023-03-14T01:15:06;11.22;85.29
70246;SHT30;57637;49.272;8.590;2023-03-14T01:17:32;11.34;85.05
70246;SHT30;57637;49.272;8.590;2023-03-14T01:19:58;11.38;85.03
70246;SHT30;57637;49.272;8.590;2023-03-14T01:22:24;11.38;85.19
70246;SHT30;57637;49.272;8.590;2023-03-14T01:24:50;11.38;85.34
70246;SHT30;57637;49.272;8.590;2023-03-14T01:27:15;11.40;85.35
70246;SHT30;57637;49.272;8.590;2023-03-14T01:29:40;11.38;85.38
70246;SHT30;57637;49.272;8.590;2023-03-14T01:32:06;11.35;85.38
70246;SHT30;57637;49.272;8.590;2023-03-14T01:34:31;11.34;85.51
70246;SHT30;57637;49.272;8.590;2023-03-14T01:36:57;11.32;85.52
70246;SHT30;57637;49.272;8.590;2023-03-14T01:39:22;11.31;85.52
70246;SHT30;57637;49.272;8.590;2023-03-14T01:41:47;11.31;85.45
70246;SHT30;57637;49.272;8.590;2023-03-14T01:44:13;11.32;85.31
70246;SHT30;57637;49.272;8.590;2023-03-14T01:46:39;11.29;85.23
70246;SHT30;57637;49.272;8.590;2023-03-14T01:49:11;11.25;85.38
70246;SHT30;57637;49.272;8.590;2023-03-14T01:51:56;11.26;85.32
70246;SHT30;57637;49.272;8.590;2023-03-14T01:57:17;11.24;85.51
70246;SHT30;57637;49.272;8.590;2023-03-14T01:59:46;11.16;85.67
70246;SHT30;57637;49.272;8.590;2023-03-14T02:02:19;11.16;85.83
70246;SHT30;57637;49.272;8.590;2023-03-14T02:04:45;11.14;85.91
70246;SHT30;57637;49.272;8.590;2023-03-14T02:07:12;11.11;85.72
70246;SHT30;57637;49.272;8.590;2023-03-14T02:09:41;11.05;85.49
70246;SHT30;57637;49.272;8.590;2023-03-14T02:12:08;11.07;85.61
70246;SHT30;57637;49.272;8.590;2023-03-14T02:14:35;11.05;85.57
70246;SHT30;57637;49.272;8.590;2023-03-14T02:17:02;11.05;85.63
70246;SHT30;57637;49.272;8.590;2023-03-14T02:19:35;11.04;85.77
70246;SHT30;57637;49.272;8.590;2023-03-14T02:22:15;10.98;85.92
70246;SHT30;57637;49.272;8.590;2023-03-14T02:27:32;10.94;86.26
70246;SHT30;57637;49.272;8.590;2023-03-14T02:30:00;10.90;86.52
70246;SHT30;57637;49.272;8.590;2023-03-14T02:32:29;10.90;86.67
70246;SHT30;57637;49.272;8.590;2023-03-14T02:34:58;10.85;86.83
70246;SHT30;57637;49.272;8.590;2023-03-14T02:37:30;10.81;86.95
70246;SHT30;57637;49.272;8.590;2023-03-14T02:40:00;10.77;87.12
70246;SHT30;57637;49.272;8.590;2023-03-14T02:42:26;10.75;87.21
70246;SHT30;57637;49.272;8.590;2023-03-14T02:44:53;10.71;87.24
70246;SHT30;57637;49.272;8.590;2023-03-14T02:47:22;10.70;87.29
70246;SHT30;57637;49.272;8.590;2023-03-14T02:49:53;10.70;87.30
70246;SHT30;57637;49.272;8.590;2023-03-14T02:52:24;10.73;87.21
70246;SHT30;57637;49.272;8.590;2023-03-14T02:54:49;10.65;87.17
70246;SHT30;57637;49.272;8.590;2023-03-14T02:57:14;10.65;87.19
70246;SHT30;57637;49.272;8.590;2023-03-14T02:59:40;10.61;87.16
70246;SHT30;57637;49.272;8.590;2023-03-14T03:02:05;10.60;87.17
70246;SHT30;57637;49.272;8.590;2023-03-14T03:04:30;10.60;87.02
70246;SHT30;57637;49.272;8.590;2023-03-14T03:06:56;10.57;87.13
70246;SHT30;57637;49.272;8.590;2023-03-14T03:09:21;10.59;86.95
70246;SHT30;57637;49.272;8.590;2023-03-14T03:11:46;10.56;86.93
70246;SHT30;57637;49.272;8.590;2023-03-14T03:14:12;10.53;86.80
70246;SHT30;57637;49.272;8.590;2023-03-14T03:16:37;10.53;86.78
70246;SHT30;57637;49.272;8.590;2023-03-14T03:19:03;10.54;86.48
70246;SHT30;57637;49.272;8.590;2023-03-14T03:21:28;10.54;86.38
70246;SHT30;57637;49.272;8.590;2023-03-14T03:23:53;10.53;86.36
70246;SHT30;57637;49.272;8.590;2023-03-14T03:26:18;10.53;86.35
70246;SHT30;57637;49.272;8.590;2023-03-14T03:28:44;10.54;86.06
70246;SHT30;57637;49.272;8.590;2023-03-14T03:31:10;10.54;85.85
70246;SHT30;57637;49.272;8.590;2023-03-14T03:33:36;10.56;85.86
70246;SHT30;57637;49.272;8.590;2023-03-14T03:36:02;10.53;85.71
70246;SHT30;57637;49.272;8.590;2023-03-14T03:38:27;10.52;85.74
70246;SHT30;57637;49.272;8.590;2023-03-14T03:40:53;10.49;85.86
70246;SHT30;57637;49.272;8.590;2023-03-14T03:43:18;10.47;85.77
70246;SHT30;57637;49.272;8.590;2023-03-14T03:45:43;10.46;85.47
70246;SHT30;57637;49.272;8.590;2023-03-14T03:48:09;10.42;85.52
70246;SHT30;57637;49.272;8.590;2023-03-14T03:50:34;10.42;85.45
70246;SHT30;57637;49.272;8.590;2023-03-14T03:53:03;10.37;85.57
70246;SHT30;57637;49.272;8.590;2023-03-14T03:55:28;10.34;85.57
70246;SHT30;57637;49.272;8.590;2023-03-14T03:57:53;10.37;85.47
70246;SHT30;57637;49.272;8.590;2023-03-14T04:00:19;10.42;85.22
70246;SHT30;57637;49.272;8.590;2023-03-14T04:02:44;10.40;85.03
70246;SHT30;57637;49.272;8.590;2023-03-14T04:05:10;10.42;84.79
70246;SHT30;57637;49.272;8.590;2023-03-14T04:07:35;10.43;84.53
70246;SHT30;57637;49.272;8.590;2023-03-14T04:10:00;10.37;84.50
70246;SHT30;57637;49.272;8.590;2023-03-14T04:12:26;10.42;84.16
70246;SHT30;57637;49.272;8.590;2023-03-14T04:14:51;10.46;83.62
70246;SHT30;57637;49.272;8.590;2023-03-14T04:17:16;10.44;83.47
70246;SHT30;57637;49.272;8.590;2023-03-14T04:19:42;10.44;83.45
70246;SHT30;57637;49.272;8.590;2023-03-14T04:22:07;10.49;83.33
70246;SHT30;57637;49.272;8.590;2023-03-14T04:24:33;10.50;83.25
70246;SHT30;57637;49.272;8.590;2023-03-14T04:26:59;10.49;82.97
70246;SHT30;57637;49.272;8.590;2023-03-14T04:29:24;10.52;82.47
70246;SHT30;57637;49.272;8.590;2023-03-14T04:31:50;10.52;82.35
70246;SHT30;57637;49.272;8.590;2023-03-14T04:34:15;10.49;82.21
70246;SHT30;57637;49.272;8.590;2023-03-14T04:36:40;10.47;81.94
70246;SHT30;57637;49.272;8.590;2023-03-14T04:39:05;10.52;81.44
70246;SHT30;57637;49.272;8.590;2023-03-14T04:41:31;10.53;81.41
70246;SHT30;57637;49.272;8.590;2023-03-14T04:43:57;10.49;81.57
70246;SHT30;57637;49.272;8.590;2023-03-14T04:46:22;10.44;81.23
70246;SHT30;57637;49.272;8.590;2023-03-14T04:48:48;10.40;81.12
70246;SHT30;57637;49.272;8.590;2023-03-14T04:51:13;10.36;80.97
70246;SHT30;57637;49.272;8.590;2023-03-14T04:53:38;10.30;80.94
70246;SHT30;57637;49.272;8.590;2023-03-14T04:56:04;10.29;80.96
70246;SHT30;57637;49.272;8.590;2023-03-14T04:58:30;10.30;80.84
70246;SHT30;57637;49.272;8.590;2023-03-14T05:00:55;10.32;80.70
70246;SHT30;57637;49.272;8.590;2023-03-14T05:03:20;10.42;80.44
70246;SHT30;57637;49.272;8.590;2023-03-14T05:05:46;10.46;80.49
70246;SHT30;57637;49.272;8.590;2023-03-14T05:08:12;10.50;80.29
70246;SHT30;57637;49.272;8.590;2023-03-14T05:10:37;10.50;80.16
70246;SHT30;57637;49.272;8.590;2023-03-14T05:13:03;10.59;79.88
70246;SHT30;57637;49.272;8.590;2023-03-14T05:15:28;10.61;79.66
70246;SHT30;57637;49.272;8.590;2023-03-14T05:17:54;10.64;79.46
70246;SHT30;57637;49.272;8.590;2023-03-14T05:20:19;10.68;79.49
70246;SHT30;57637;49.272;8.590;2023-03-14T05:22:45;10.67;79.51
70246;SHT30;57637;49.272;8.590;2023-03-14T05:25:11;10.70;79.60
70246;SHT30;57637;49.272;8.590;2023-03-14T05:27:36;10.71;79.60
70246;SHT30;57637;49.272;8.590;2023-03-14T05:30:02;10.71;79.61
70246;SHT30;57637;49.272;8.590;2023-03-14T05:32:29;10.70;79.80
70246;SHT30;57637;49.272;8.590;2023-03-14T05:34:54;10.74;79.85
70246;SHT30;57637;49.272;8.590;2023-03-14T05:37:23;10.70;79.61
70246;SHT30;57637;49.272;8.590;2023-03-14T05:39:48;10.75;79.41
70246;SHT30;57637;49.272;8.590;2023-03-14T05:42:14;10.77;79.33
70246;SHT30;57637;49.272;8.590;2023-03-14T05:44:39;10.78;79.26
70246;SHT30;57637;49.272;8.590;2023-03-14T05:47:04;10.78;79.31
70246;SHT30;57637;49.272;8.590;2023-03-14T05:49:30;10.78;79.34
70246;SHT30;57637;49.272;8.590;2023-03-14T05:51:55;10.77;79.19
70246;SHT30;57637;49.272;8.590;2023-03-14T05:54:20;10.83;78.59
70246;SHT30;57637;49.272;8.590;2023-03-14T05:56:46;10.85;78.52
70246;SHT30;57637;49.272;8.590;2023-03-14T05:59:11;10.85;78.47
70246;SHT30;57637;49.272;8.590;2023-03-14T06:01:38;10.87;78.32
70246;SHT30;57637;49.272;8.590;2023-03-14T06:04:04;10.84;78.49
70246;SHT30;57637;49.272;8.590;2023-03-14T06:06:29;10.84;78.63
70246;SHT30;57637;49.272;8.590;2023-03-14T06:08:55;10.83;78.52
70246;SHT30;57637;49.272;8.590;2023-03-14T06:11:20;10.87;78.20
70246;SHT30;57637;49.272;8.590;2023-03-14T06:13:45;10.91;78.37
70246;SHT30;57637;49.272;8.590;2023-03-14T06:16:11;10.93;78.15
70246;SHT30;57637;49.272;8.590;2023-03-14T06:18:36;10.93;78.35
70246;SHT30;57637;49.272;8.590;2023-03-14T06:21:02;10.91;78.35
70246;SHT30;57637;49.272;8.590;2023-03-14T06:23:28;10.94;78.19
70246;SHT30;57637;49.272;8.590;2023-03-14T06:25:55;10.93;78.39
70246;SHT30;57637;49.272;8.590;2023-03-14T06:28:20;10.94;78.61
70246;SHT30;57637;49.272;8.590;2023-03-14T06:30:46;10.97;78.43
70246;SHT30;57637;49.272;8.590;2023-03-14T06:33:11;11.01;78.25
70246;SHT30;57637;49.272;8.590;2023-03-14T06:35:36;11.05;77.94
70246;SHT30;57637;49.272;8.590;2023-03-14T06:38:02;11.07;78.02
70246;SHT30;57637;49.272;8.590;2023-03-14T06:40:27;11.14;77.75
70246;SHT30;57637;49.272;8.590;2023-03-14T06:42:53;11.18;77.75
70246;SHT30;57637;49.272;8.590;2023-03-14T06:45:18;11.24;77.42
70246;SHT30;57637;49.272;8.590;2023-03-14T06:47:43;11.25;77.51
70246;SHT30;57637;49.272;8.590;2023-03-14T06:50:09;11.31;77.65
70246;SHT30;57637;49.272;8.590;2023-03-14T06:52:35;11.28;77.56
70246;SHT30;57637;49.272;8.590;2023-03-14T06:55:01;11.31;77.59
70246;SHT30;57637;49.272;8.590;2023-03-14T06:57:27;11.34;77.61
70246;SHT30;57637;49.272;8.590;2023-03-14T06:59:52;11.40;77.68
70246;SHT30;57637;49.272;8.590;2023-03-14T07:02:18;11.35;77.56
70246;SHT30;57637;49.272;8.590;2023-03-14T07:04:43;11.36;77.67
70246;SHT30;57637;49.272;8.590;2023-03-14T07:07:08;11.35;77.64
70246;SHT30;57637;49.272;8.590;2023-03-14T07:09:34;11.36;77.55
70246;SHT30;57637;49.272;8.590;2023-03-14T07:12:00;11.31;77.79
70246;SHT30;57637;49.272;8.590;2023-03-14T07:14:25;11.28;77.67
70246;SHT30;57637;49.272;8.590;2023-03-14T07:16:51;11.28;77.69
70246;SHT30;57637;49.272;8.590;2023-03-14T07:19:16;11.24;77.68
70246;SHT30;57637;49.272;8.590;2023-03-14T07:21:41;11.31;77.57
70246;SHT30;57637;49.272;8.590;2023-03-14T07:24:07;11.35;77.55
70246;SHT30;57637;49.272;8.590;2023-03-14T07:26:32;11.36;77.19
70246;SHT30;57637;49.272;8.590;2023-03-14T07:28:58;11.48;76.93
70246;SHT30;57637;49.272;8.590;2023-03-14T07:31:23;11.52;77.03
70246;SHT30;57637;49.272;8.590;2023-03-14T07:33:49;11.62;76.66
70246;SHT30;57637;49.272;8.590;2023-03-14T07:36:15;11.72;76.69
70246;SHT30;57637;49.272;8.590;2023-03-14T07:38:40;11.86;76.80
70246;SHT30;57637;49.272;8.590;2023-03-14T07:41:06;11.93;75.78
70246;SHT30;57637;49.272;8.590;2023-03-14T07:43:32;11.99;75.63
70246;SHT30;57637;49.272;8.590;2023-03-14T07:45:58;12.00;75.35
70246;SHT30;57637;49.272;8.590;2023-03-14T07:48:23;12.17;75.23
70246;SHT30;57637;49.272;8.590;2023-03-14T07:50:52;12.20;74.82
70246;SHT30;57637;49.272;8.590;2023-03-14T07:53:18;12.23;74.48
70246;SHT30;57637;49.272;8.590;2023-03-14T07:55:44;12.19;74.90
70246;SHT30;57637;49.272;8.590;2023-03-14T07:58:10;12.21;75.09
70246;SHT30;57637;49.272;8.590;2023-03-14T08:00:35;12.23;75.16
70246;SHT30;57637;49.272;8.590;2023-03-14T08:03:00;12.34;75.53
70246;SHT30;57637;49.272;8.590;2023-03-14T08:05:27;12.44;75.05
70246;SHT30;57637;49.272;8.590;2023-03-14T08:07:52;12.55;74.79
70246;SHT30;57637;49.272;8.590;2023-03-14T08:10:18;12.61;74.53
70246;SHT30;57637;49.272;8.590;2023-03-14T08:12:48;12.71;74.13
70246;SHT30;57637;49.272;8.590;2023-03-14T08:15:18;12.69;73.22
70246;SHT30;57637;49.272;8.590;2023-03-14T08:17:44;12.71;73.28
70246;SHT30;57637;49.272;8.590;2023-03-14T08:20:10;12.75;73.01
70246;SHT30;57637;49.272;8.590;2023-03-14T08:22:36;12.82;72.96
70246;SHT30;57637;49.272;8.590;2023-03-14T08:25:02;12.91;72.71
70246;SHT30;57637;49.272;8.590;2023-03-14T08:27:28;12.99;72.38
70246;SHT30;57637;49.272;8.590;2023-03-14T08:29:53;13.02;72.47
70246;SHT30;57637;49.272;8.590;2023-03-14T08:32:19;13.15;72.63
70246;SHT30;57637;49.272;8.590;2023-03-14T08:34:45;13.12;72.38
70246;SHT30;57637;49.272;8.590;2023-03-14T08:37:10;13.16;72.58
70246;SHT30;57637;49.272;8.590;2023-03-14T08:39:36;13.32;72.29
70246;SHT30;57637;49.272;8.590;2023-03-14T08:42:01;13.30;72.20
70246;SHT30;57637;49.272;8.590;2023-03-14T08:44:27;13.26;72.16
70246;SHT30;57637;49.272;8.590;2023-03-14T08:46:52;13.08;72.85
70246;SHT30;57637;49.272;8.590;2023-03-14T08:49:17;13.06;73.45
70246;SHT30;57637;49.272;8.590;2023-03-14T08:51:43;13.13;73.88
70246;SHT30;57637;49.272;8.590;2023-03-14T08:54:11;13.18;73.86
70246;SHT30;57637;49.272;8.590;2023-03-14T08:56:37;13.42;73.43
70246;SHT30;57637;49.272;8.590;2023-03-14T08:59:05;13.83;73.03
70246;SHT30;57637;49.272;8.590;2023-03-14T09:01:31;14.04;72.65
70246;SHT30;57637;49.272;8.590;2023-03-14T09:03:57;14.14;72.54
70246;SHT30;57637;49.272;8.590;2023-03-14T09:06:22;14.01;72.28
70246;SHT30;57637;49.272;8.590;2023-03-14T09:08:48;14.07;72.64
70246;SHT30;57637;49.272;8.590;2023-03-14T09:11:13;14.01;72.96
70246;SHT30;57637;49.272;8.590;2023-03-14T09:13:39;13.85;73.24
70246;SHT30;57637;49.272;8.590;2023-03-14T09:16:05;13.53;74.22
70246;SHT30;57637;49.272;8.590;2023-03-14T09:18:32;13.36;74.58
70246;SHT30;57637;49.272;8.590;2023-03-14T09:20:57;13.30;74.94
70246;SHT30;57637;49.272;8.590;2023-03-14T09:23:22;13.30;75.21
70246;SHT30;57637;49.272;8.590;2023-03-14T09:25:48;13.39;74.75
70246;SHT30;57637;49.272;8.590;2023-03-14T09:28:13;13.53;74.60
70246;SHT30;57637;49.272;8.590;2023-03-14T09:30:39;13.81;74.08
70246;SHT30;57637;49.272;8.590;2023-03-14T09:33:04;13.87;72.94
70246;SHT30;57637;49.272;8.590;2023-03-14T09:35:29;13.84;72.97
70246;SHT30;57637;49.272;8.590;2023-03-14T09:37:55;13.88;73.29
70246;SHT30;57637;49.272;8.590;2023-03-14T09:40:20;13.94;73.49
70246;SHT30;57637;49.272;8.590;2023-03-14T09:42:48;13.95;72.70
70246;SHT30;57637;49.272;8.590;2023-03-14T09:48:16;13.91;72.66
70246;SHT30;57637;49.272;8.590;2023-03-14T09:50:47;13.98;72.49
70246;SHT30;57637;49.272;8.590;2023-03-14T09:53:16;13.91;72.35
70246;SHT30;57637;49.272;8.590;2023-03-14T09:55:45;13.71;72.32
70246;SHT30;57637;49.272;8.590;2023-03-14T09:58:13;13.77;72.28
70246;SHT30;57637;49.272;8.590;2023-03-14T10:00:42;13.71;72.63
70246;SHT30;57637;49.272;8.590;2023-03-14T10:05:38;13.16;74.81
70246;SHT30;57637;49.272;8.590;2023-03-14T10:08:04;13.08;75.06
70246;SHT30;57637;49.272;8.590;2023-03-14T10:10:30;13.08;75.00
70246;SHT30;57637;49.272;8.590;2023-03-14T10:13:16;12.96;76.32
70246;SHT30;57637;49.272;8.590;2023-03-14T10:15:55;13.01;77.07
70246;SHT30;57637;49.272;8.590;2023-03-14T10:18:25;12.96;77.59
70246;SHT30;57637;49.272;8.590;2023-03-14T10:21:16;13.05;77.52
70246;SHT30;57637;49.272;8.590;2023-03-14T10:23:46;13.27;77.54
70246;SHT30;57637;49.272;8.590;2023-03-14T10:26:15;13.30;76.73
70246;SHT30;57637;49.272;8.590;2023-03-14T10:28:55;13.52;77.10
70246;SHT30;57637;49.272;8.590;2023-03-14T10:31:27;13.71;76.49
70246;SHT30;57637;49.272;8.590;2023-03-14T10:34:00;13.50;77.05
70246;SHT30;57637;49.272;8.590;2023-03-14T10:36:30;13.18;77.22
70246;SHT30;57637;49.272;8.590;2023-03-14T10:38:58;13.05;78.34
70246;SHT30;57637;49.272;8.590;2023-03-14T10:41:41;12.95;78.67
70246;SHT30;57637;49.272;8.590;2023-03-14T10:44:13;12.99;79.74
70246;SHT30;57637;49.272;8.590;2023-03-14T10:46:40;12.96;79.61
70246;SHT30;57637;49.272;8.590;2023-03-14T10:49:06;12.89;79.08
70246;SHT30;57637;49.272;8.590;2023-03-14T10:51:32;12.87;78.78
70246;SHT30;57637;49.272;8.590;2023-03-14T10:54:02;12.58;79.30
70246;SHT30;57637;49.272;8.590;2023-03-14T10:56:37;12.40;80.23
70246;SHT30;57637;49.272;8.590;2023-03-14T10:59:03;12.36;80.51
70246;SHT30;57637;49.272;8.590;2023-03-14T11:01:41;12.37;80.79
70246;SHT30;57637;49.272;8.590;2023-03-14T11:06:58;12.16;81.55
70246;SHT30;57637;49.272;8.590;2023-03-14T11:09:34;12.10;81.74
70246;SHT30;57637;49.272;8.590;2023-03-14T11:14:51;11.77;83.11
70246;SHT30;57637;49.272;8.590;2023-03-14T11:18:00;11.62;83.53
70246;SHT30;57637;49.272;8.590;2023-03-14T11:23:16;11.63;84.27
70246;SHT30;57637;49.272;8.590;2023-03-14T11:25:48;11.63;84.40
70246;SHT30;57637;49.272;8.590;2023-03-14T11:31:01;11.51;84.45
70246;SHT30;57637;49.272;8.590;2023-03-14T11:33:39;11.63;84.68
70246;SHT30;57637;49.272;8.590;2023-03-14T11:36:19;11.49;84.71
70246;SHT30;57637;49.272;8.590;2023-03-14T11:38:50;11.40;84.79
70246;SHT30;57637;49.272;8.590;2023-03-14T11:41:22;11.43;84.99
70246;SHT30;57637;49.272;8.590;2023-03-14T11:43:59;11.38;85.29
70246;SHT30;57637;49.272;8.590;2023-03-14T11:46:30;11.40;85.39
70246;SHT30;57637;49.272;8.590;2023-03-14T11:51:38;11.22;82.90
70246;SHT30;57637;49.272;8.590;2023-03-14T11:57:18;11.19;79.45
70246;SHT30;57637;49.272;8.590;2023-03-14T11:59:47;11.16;78.88
70246;SHT30;57637;49.272;8.590;2023-03-14T12:05:22;11.11;78.25
70246;SHT30;57637;49.272;8.590;2023-03-14T12:10:45;11.05;78.55
70246;SHT30;57637;49.272;8.590;2023-03-14T12:13:20;11.11;78.79
70246;SHT30;57637;49.272;8.590;2023-03-14T12:15:50;11.01;78.55
70246;SHT30;57637;49.272;8.590;2023-03-14T12:18:24;10.85;78.73
70246;SHT30;57637;49.272;8.590;2023-03-14T12:20:56;10.80;79.24
70246;SHT30;57637;49.272;8.590;2023-03-14T12:23:24;10.91;79.23
70246;SHT30;57637;49.272;8.590;2023-03-14T12:28:50;10.73;78.55
70246;SHT30;57637;49.272;8.590;2023-03-14T12:39:12;10.63;77.79
70246;SHT30;57637;49.272;8.590;2023-03-14T12:41:52;10.37;77.54
70246;SHT30;57637;49.272;8.590;2023-03-14T12:46:59;10.14;76.03
70246;SHT30;57637;49.272;8.590;2023-03-14T12:52:16;10.09;74.37
70246;SHT30;57637;49.272;8.590;2023-03-14T12:59:48;10.47;71.14
70246;SHT30;57637;49.272;8.590;2023-03-14T13:05:33;11.16;68.97
70246;SHT30;57637;49.272;8.590;2023-03-14T13:10:25;11.73;67.59
70246;SHT30;57637;49.272;8.590;2023-03-14T13:18:13;11.93;65.92
70246;SHT30;57637;49.272;8.590;2023-03-14T13:20:44;12.10;65.39
70246;SHT30;57637;49.272;8.590;2023-03-14T13:23:22;11.89;64.81
70246;SHT30;57637;49.272;8.590;2023-03-14T13:25:56;11.70;64.41
70246;SHT30;57637;49.272;8.590;2023-03-14T13:28:22;11.76;64.35
70246;SHT30;57637;49.272;8.590;2023-03-14T13:30:49;11.63;64.14
70246;SHT30;57637;49.272;8.590;2023-03-14T13:33:20;11.43;62.19
70246;SHT30;57637;49.272;8.590;2023-03-14T13:35:49;11.29;60.59
70246;SHT30;57637;49.272;8.590;2023-03-14T13:38:21;11.24;62.04
70246;SHT30;57637;49.272;8.590;2023-03-14T13:40:49;11.11;61.85
70246;SHT30;57637;49.272;8.590;2023-03-14T13:43:17;10.94;59.60
70246;SHT30;57637;49.272;8.590;2023-03-14T13:46:00;10.84;58.42
70246;SHT30;57637;49.272;8.590;2023-03-14T13:48:29;10.88;59.66
70246;SHT30;57637;49.272;8.590;2023-03-14T13:51:06;10.83;57.35
70246;SHT30;57637;49.272;8.590;2023-03-14T13:53:48;10.63;56.91
70246;SHT30;57637;49.272;8.590;2023-03-14T13:56:19;10.71;57.12
70246;SHT30;57637;49.272;8.590;2023-03-14T13:58:46;10.88;55.67
70246;SHT30;57637;49.272;8.590;2023-03-14T14:01:14;10.90;56.27
70246;SHT30;57637;49.272;8.590;2023-03-14T14:03:42;11.00;56.32
70246;SHT30;57637;49.272;8.590;2023-03-14T14:06:33;10.97;57.39
70246;SHT30;57637;49.272;8.590;2023-03-14T14:09:20;10.84;56.39
70246;SHT30;57637;49.272;8.590;2023-03-14T14:11:56;10.64;56.10
70246;SHT30;57637;49.272;8.590;2023-03-14T14:14:32;10.49;57.80
70246;SHT30;57637;49.272;8.590;2023-03-14T14:16:59;10.54;56.75
70246;SHT30;57637;49.272;8.590;2023-03-14T14:19:27;10.68;56.74
70246;SHT30;57637;49.272;8.590;2023-03-14T14:21:55;10.95;57.29
70246;SHT30;57637;49.272;8.590;2023-03-14T14:24:23;10.93;56.15
70246;SHT30;57637;49.272;8.590;2023-03-14T14:26:53;10.91;54.95
70246;SHT30;57637;49.272;8.590;2023-03-14T14:29:25;11.35;55.44
70246;SHT30;57637;49.272;8.590;2023-03-14T14:32:00;11.63;53.94
70246;SHT30;57637;49.272;8.590;2023-03-14T14:34:26;11.63;52.38
70246;SHT30;57637;49.272;8.590;2023-03-14T14:36:52;11.59;51.76
70246;SHT30;57637;49.272;8.590;2023-03-14T14:39:23;11.55;52.94
70246;SHT30;57637;49.272;8.590;2023-03-14T14:41:51;11.29;51.75
70246;SHT30;57637;49.272;8.590;2023-03-14T14:44:21;11.52;52.62
70246;SHT30;57637;49.272;8.590;2023-03-14T14:46:57;11.66;53.75
70246;SHT30;57637;49.272;8.590;2023-03-14T14:49:28;11.32;51.78
70246;SHT30;57637;49.272;8.590;2023-03-14T14:52:12;11.46;52.41
70246;SHT30;57637;49.272;8.590;2023-03-14T14:54:44;11.58;52.04
70246;SHT30;57637;49.272;8.590;2023-03-14T14:57:20;11.40;52.49
70246;SHT30;57637;49.272;8.590;2023-03-14T14:59:49;11.35;52.33
70246;SHT30;57637;49.272;8.590;2023-03-14T15:02:37;11.28;52.44
70246;SHT30;57637;49.272;8.590;2023-03-14T15:05:16;11.22;51.39
70246;SHT30;57637;49.272;8.590;2023-03-14T15:07:43;11.07;51.96
70246;SHT30;57637;49.272;8.590;2023-03-14T15:10:14;11.05;51.43
70246;SHT30;57637;49.272;8.590;2023-03-14T15:12:43;11.01;51.58
70246;SHT30;57637;49.272;8.590;2023-03-14T15:15:10;10.90;51.37
70246;SHT30;57637;49.272;8.590;2023-03-14T15:17:36;11.07;51.76
70246;SHT30;57637;49.272;8.590;2023-03-14T15:20:03;11.35;51.56
70246;SHT30;57637;49.272;8.590;2023-03-14T15:22:30;11.55;49.76
70246;SHT30;57637;49.272;8.590;2023-03-14T15:24:56;11.51;49.64
70246;SHT30;57637;49.272;8.590;2023-03-14T15:27:21;11.40;49.81
70246;SHT30;57637;49.272;8.590;2023-03-14T15:29:47;11.35;49.70
70246;SHT30;57637;49.272;8.590;2023-03-14T15:32:13;11.15;49.53
70246;SHT30;57637;49.272;8.590;2023-03-14T15:34:40;11.19;50.68
70246;SHT30;57637;49.272;8.590;2023-03-14T15:37:12;11.28;50.47
70246;SHT30;57637;49.272;8.590;2023-03-14T15:39:40;11.18;50.76
70246;SHT30;57637;49.272;8.590;2023-03-14T15:42:06;11.24;50.30
70246;SHT30;57637;49.272;8.590;2023-03-14T15:44:32;11.19;50.96
70246;SHT30;57637;49.272;8.590;2023-03-14T15:46:57;11.16;51.80
70246;SHT30;57637;49.272;8.590;2023-03-14T15:49:22;11.11;51.74
70246;SHT30;57637;49.272;8.590;2023-03-14T15:51:48;10.98;52.22
70246;SHT30;57637;49.272;8.590;2023-03-14T15:54:14;10.87;52.58
70246;SHT30;57637;49.272;8.590;2023-03-14T15:56:39;10.80;53.75
70246;SHT30;57637;49.272;8.590;2023-03-14T15:59:05;10.84;54.12
70246;SHT30;57637;49.272;8.590;2023-03-14T16:01:30;10.83;53.91
70246;SHT30;57637;49.272;8.590;2023-03-14T16:03:55;10.73;54.41
70246;SHT30;57637;49.272;8.590;2023-03-14T16:06:21;10.64;54.20
70246;SHT30;57637;49.272;8.590;2023-03-14T16:08:46;10.56;55.70
70246;SHT30;57637;49.272;8.590;2023-03-14T16:11:12;10.42;55.34
70246;SHT30;57637;49.272;8.590;2023-03-14T16:13:40;10.36;55.31
70246;SHT30;57637;49.272;8.590;2023-03-14T16:16:06;10.30;55.31
70246;SHT30;57637;49.272;8.590;2023-03-14T16:18:33;10.26;55.86
70246;SHT30;57637;49.272;8.590;2023-03-14T16:21:02;10.24;55.66
70246;SHT30;57637;49.272;8.590;2023-03-14T16:23:31;10.23;56.05
70246;SHT30;57637;49.272;8.590;2023-03-14T16:25:56;10.16;56.19
70246;SHT30;57637;49.272;8.590;2023-03-14T16:28:22;10.06;56.48
70246;SHT30;57637;49.272;8.590;2023-03-14T16:30:49;10.02;56.94
70246;SHT30;57637;49.272;8.590;2023-03-14T16:33:15;10.03;57.55
70246;SHT30;57637;49.272;8.590;2023-03-14T16:35:40;9.98;57.71
70246;SHT30;57637;49.272;8.590;2023-03-14T16:38:06;9.99;58.24
70246;SHT30;57637;49.272;8.590;2023-03-14T16:40:33;9.93;58.13